sensor_id;sensor_type;location;lat;lon;timestamp;P1;durP1;ratioP1;P2;durP2;ratioP2
76403;SDS011;65232;48.358;2.122;2024-01-30T00:00:14;18.08;;;11.88;;
76403;SDS011;65232;48.358;2.122;2024-01-30T00:00:40;15.13;;;10.75;;
76403;SDS011;65232;48.358;2.122;2024-01-30T00:01:05;15.52;;;11.20;;
76403;SDS011;65232;48.358;2.122;2024-01-30T00:01:31;14.80;;;11.15;;
76403;SDS011;65232;48.358;2.122;2024-01-30T00:01:56;14.15;;;10.90;;
76403;SDS011;65232;48.358;2.122;2024-01-30T00:02:22;13.93;;;10.63;;
76403;SDS011;65232;48.358;2.122;2024-01-30T00:02:49;15.50;;;10.73;;
76403;SDS011;65232;48.358;2.122;2024-01-30T00:03:15;16.23;;;11.40;;
76403;SDS011;65232;48.358;2.122;2024-01-30T00:03:40;14.63;;;10.73;;
76403;SDS011;65232;48.358;2.122;2024-01-30T00:04:06;16.13;;;11.55;;
76403;SDS011;65232;48.358;2.122;2024-01-30T00:04:32;14.70;;;11.57;;
76403;SDS011;65232;48.358;2.122;2024-01-30T00:04:57;16.60;;;11.77;;
76403;SDS011;65232;48.358;2.122;2024-01-30T00:05:22;19.27;;;13.00;;
76403;SDS011;65232;48.358;2.122;2024-01-30T00:05:48;15.48;;;11.82;;
76403;SDS011;65232;48.358;2.122;2024-01-30T00:06:13;16.17;;;12.18;;
76403;SDS011;65232;48.358;2.122;2024-01-30T00:06:39;15.68;;;10.98;;
76403;SDS011;65232;48.358;2.122;2024-01-30T00:07:04;13.30;;;10.45;;
76403;SDS011;65232;48.358;2.122;2024-01-30T00:07:30;15.07;;;11.02;;
76403;SDS011;65232;48.358;2.122;2024-01-30T00:07:55;16.30;;;12.32;;
76403;SDS011;65232;48.358;2.122;2024-01-30T00:08:21;17.58;;;11.73;;
76403;SDS011;65232;48.358;2.122;2024-01-30T00:08:46;19.65;;;11.88;;
76403;SDS011;65232;48.358;2.122;2024-01-30T00:09:14;14.30;;;10.82;;
76403;SDS011;65232;48.358;2.122;2024-01-30T00:09:39;16.75;;;10.82;;
76403;SDS011;65232;48.358;2.122;2024-01-30T00:10:05;17.20;;;12.18;;
76403;SDS011;65232;48.358;2.122;2024-01-30T00:10:31;16.65;;;11.85;;
76403;SDS011;65232;48.358;2.122;2024-01-30T00:10:56;15.00;;;11.10;;
76403;SDS011;65232;48.358;2.122;2024-01-30T00:11:22;16.80;;;11.75;;
76403;SDS011;65232;48.358;2.122;2024-01-30T00:11:50;16.60;;;12.07;;
76403;SDS011;65232;48.358;2.122;2024-01-30T00:12:16;17.75;;;11.68;;
76403;SDS011;65232;48.358;2.122;2024-01-30T00:12:41;13.98;;;10.93;;
76403;SDS011;65232;48.358;2.122;2024-01-30T00:13:07;16.30;;;12.45;;
76403;SDS011;65232;48.358;2.122;2024-01-30T00:13:32;18.38;;;13.20;;
76403;SDS011;65232;48.358;2.122;2024-01-30T00:13:57;17.45;;;13.13;;
76403;SDS011;65232;48.358;2.122;2024-01-30T00:14:23;20.38;;;13.43;;
76403;SDS011;65232;48.358;2.122;2024-01-30T00:14:49;17.58;;;11.80;;
76403;SDS011;65232;48.358;2.122;2024-01-30T00:15:14;13.80;;;11.32;;
76403;SDS011;65232;48.358;2.122;2024-01-30T00:15:40;15.95;;;11.63;;
76403;SDS011;65232;48.358;2.122;2024-01-30T00:16:06;16.45;;;10.68;;
76403;SDS011;65232;48.358;2.122;2024-01-30T00:16:32;15.63;;;11.65;;
76403;SDS011;65232;48.358;2.122;2024-01-30T00:16:57;15.15;;;11.32;;
76403;SDS011;65232;48.358;2.122;2024-01-30T00:17:23;15.25;;;11.20;;
76403;SDS011;65232;48.358;2.122;2024-01-30T00:17:50;20.42;;;13.02;;
76403;SDS011;65232;48.358;2.122;2024-01-30T00:18:17;19.95;;;12.82;;
76403;SDS011;65232;48.358;2.122;2024-01-30T00:18:43;16.98;;;12.93;;
76403;SDS011;65232;48.358;2.122;2024-01-30T00:19:09;16.02;;;11.98;;
76403;SDS011;65232;48.358;2.122;2024-01-30T00:19:34;17.00;;;11.75;;
76403;SDS011;65232;48.358;2.122;2024-01-30T00:20:00;16.88;;;10.90;;
76403;SDS011;65232;48.358;2.122;2024-01-30T00:20:25;13.05;;;10.40;;
76403;SDS011;65232;48.358;2.122;2024-01-30T00:20:51;13.50;;;10.60;;
76403;SDS011;65232;48.358;2.122;2024-01-30T00:21:16;17.88;;;11.00;;
76403;SDS011;65232;48.358;2.122;2024-01-30T00:21:42;17.27;;;12.45;;
76403;SDS011;65232;48.358;2.122;2024-01-30T00:22:08;20.08;;;13.45;;
76403;SDS011;65232;48.358;2.122;2024-01-30T00:22:33;16.33;;;12.68;;
76403;SDS011;65232;48.358;2.122;2024-01-30T00:22:58;19.55;;;13.68;;
76403;SDS011;65232;48.358;2.122;2024-01-30T00:23:24;16.77;;;12.00;;
76403;SDS011;65232;48.358;2.122;2024-01-30T00:23:49;16.52;;;12.00;;
76403;SDS011;65232;48.358;2.122;2024-01-30T00:24:15;19.17;;;11.95;;
76403;SDS011;65232;48.358;2.122;2024-01-30T00:24:40;16.58;;;12.07;;
76403;SDS011;65232;48.358;2.122;2024-01-30T00:25:06;15.18;;;11.52;;
76403;SDS011;65232;48.358;2.122;2024-01-30T00:25:31;17.98;;;12.10;;
76403;SDS011;65232;48.358;2.122;2024-01-30T00:25:58;19.42;;;13.05;;
76403;SDS011;65232;48.358;2.122;2024-01-30T00:26:23;20.88;;;14.57;;
76403;SDS011;65232;48.358;2.122;2024-01-30T00:26:49;20.65;;;13.45;;
76403;SDS011;65232;48.358;2.122;2024-01-30T00:27:14;18.85;;;12.52;;
76403;SDS011;65232;48.358;2.122;2024-01-30T00:27:40;19.90;;;13.45;;
76403;SDS011;65232;48.358;2.122;2024-01-30T00:28:05;19.08;;;13.15;;
76403;SDS011;65232;48.358;2.122;2024-01-30T00:28:31;17.33;;;12.00;;
76403;SDS011;65232;48.358;2.122;2024-01-30T00:28:56;16.52;;;12.02;;
76403;SDS011;65232;48.358;2.122;2024-01-30T00:29:22;19.50;;;13.38;;
76403;SDS011;65232;48.358;2.122;2024-01-30T00:29:48;17.25;;;12.48;;
76403;SDS011;65232;48.358;2.122;2024-01-30T00:30:14;18.45;;;13.30;;
76403;SDS011;65232;48.358;2.122;2024-01-30T00:30:39;20.08;;;13.75;;
76403;SDS011;65232;48.358;2.122;2024-01-30T00:31:05;20.98;;;15.05;;
76403;SDS011;65232;48.358;2.122;2024-01-30T00:31:31;22.20;;;16.77;;
76403;SDS011;65232;48.358;2.122;2024-01-30T00:31:56;22.90;;;15.98;;
76403;SDS011;65232;48.358;2.122;2024-01-30T00:32:22;21.65;;;15.63;;
76403;SDS011;65232;48.358;2.122;2024-01-30T00:32:48;22.02;;;15.48;;
76403;SDS011;65232;48.358;2.122;2024-01-30T00:33:14;21.92;;;16.20;;
76403;SDS011;65232;48.358;2.122;2024-01-30T00:34:05;19.98;;;14.10;;
76403;SDS011;65232;48.358;2.122;2024-01-30T00:34:31;17.52;;;13.25;;
76403;SDS011;65232;48.358;2.122;2024-01-30T00:34:56;21.73;;;14.75;;
76403;SDS011;65232;48.358;2.122;2024-01-30T00:35:22;21.10;;;14.77;;
76403;SDS011;65232;48.358;2.122;2024-01-30T00:35:47;20.20;;;13.30;;
76403;SDS011;65232;48.358;2.122;2024-01-30T00:36:13;19.90;;;13.43;;
76403;SDS011;65232;48.358;2.122;2024-01-30T00:36:38;17.23;;;12.77;;
76403;SDS011;65232;48.358;2.122;2024-01-30T00:37:04;19.02;;;12.88;;
76403;SDS011;65232;48.358;2.122;2024-01-30T00:37:29;18.33;;;13.43;;
76403;SDS011;65232;48.358;2.122;2024-01-30T00:37:56;19.00;;;14.13;;
76403;SDS011;65232;48.358;2.122;2024-01-30T00:38:22;19.75;;;14.07;;
76403;SDS011;65232;48.358;2.122;2024-01-30T00:38:47;20.75;;;13.70;;
76403;SDS011;65232;48.358;2.122;2024-01-30T00:39:13;17.83;;;13.55;;
76403;SDS011;65232;48.358;2.122;2024-01-30T00:39:40;35.53;;;23.65;;
76403;SDS011;65232;48.358;2.122;2024-01-30T00:40:06;40.67;;;25.52;;
76403;SDS011;65232;48.358;2.122;2024-01-30T00:40:32;25.80;;;17.80;;
76403;SDS011;65232;48.358;2.122;2024-01-30T00:40:58;24.92;;;17.25;;
76403;SDS011;65232;48.358;2.122;2024-01-30T00:41:23;22.60;;;15.38;;
76403;SDS011;65232;48.358;2.122;2024-01-30T00:41:49;20.08;;;15.18;;
76403;SDS011;65232;48.358;2.122;2024-01-30T00:42:14;22.33;;;15.10;;
76403;SDS011;65232;48.358;2.122;2024-01-30T00:42:40;20.98;;;13.98;;
76403;SDS011;65232;48.358;2.122;2024-01-30T00:43:05;20.88;;;14.23;;
76403;SDS011;65232;48.358;2.122;2024-01-30T00:43:31;17.73;;;13.55;;
76403;SDS011;65232;48.358;2.122;2024-01-30T00:43:56;20.63;;;13.98;;
76403;SDS011;65232;48.358;2.122;2024-01-30T00:44:21;21.35;;;14.57;;
76403;SDS011;65232;48.358;2.122;2024-01-30T00:44:47;21.13;;;14.25;;
76403;SDS011;65232;48.358;2.122;2024-01-30T00:45:15;19.73;;;14.50;;
76403;SDS011;65232;48.358;2.122;2024-01-30T00:45:41;19.58;;;12.82;;
76403;SDS011;65232;48.358;2.122;2024-01-30T00:46:08;21.23;;;14.65;;
76403;SDS011;65232;48.358;2.122;2024-01-30T00:46:34;17.92;;;13.15;;
76403;SDS011;65232;48.358;2.122;2024-01-30T00:46:59;18.95;;;12.88;;
76403;SDS011;65232;48.358;2.122;2024-01-30T00:47:25;22.15;;;14.40;;
76403;SDS011;65232;48.358;2.122;2024-01-30T00:47:50;18.33;;;12.65;;
76403;SDS011;65232;48.358;2.122;2024-01-30T00:48:16;19.90;;;13.43;;
76403;SDS011;65232;48.358;2.122;2024-01-30T00:48:41;24.17;;;17.08;;
76403;SDS011;65232;48.358;2.122;2024-01-30T00:49:06;21.08;;;15.88;;
76403;SDS011;65232;48.358;2.122;2024-01-30T00:49:32;21.70;;;13.52;;
76403;SDS011;65232;48.358;2.122;2024-01-30T00:49:57;18.75;;;14.52;;
76403;SDS011;65232;48.358;2.122;2024-01-30T00:50:23;17.58;;;12.88;;
76403;SDS011;65232;48.358;2.122;2024-01-30T00:50:48;17.67;;;12.27;;
76403;SDS011;65232;48.358;2.122;2024-01-30T00:51:14;17.67;;;12.63;;
76403;SDS011;65232;48.358;2.122;2024-01-30T00:51:40;18.05;;;13.57;;
76403;SDS011;65232;48.358;2.122;2024-01-30T00:52:05;20.67;;;13.73;;
76403;SDS011;65232;48.358;2.122;2024-01-30T00:52:31;19.17;;;13.50;;
76403;SDS011;65232;48.358;2.122;2024-01-30T00:52:58;19.35;;;13.57;;
76403;SDS011;65232;48.358;2.122;2024-01-30T00:53:23;19.23;;;13.48;;
76403;SDS011;65232;48.358;2.122;2024-01-30T00:53:48;20.08;;;15.10;;
76403;SDS011;65232;48.358;2.122;2024-01-30T00:54:14;21.65;;;14.88;;
76403;SDS011;65232;48.358;2.122;2024-01-30T00:54:39;17.77;;;13.77;;
76403;SDS011;65232;48.358;2.122;2024-01-30T00:55:05;21.83;;;14.48;;
76403;SDS011;65232;48.358;2.122;2024-01-30T00:55:30;20.73;;;14.55;;
76403;SDS011;65232;48.358;2.122;2024-01-30T00:55:56;19.35;;;13.48;;
76403;SDS011;65232;48.358;2.122;2024-01-30T00:56:21;20.02;;;13.27;;
76403;SDS011;65232;48.358;2.122;2024-01-30T00:56:47;21.15;;;14.68;;
76403;SDS011;65232;48.358;2.122;2024-01-30T00:57:12;19.23;;;14.05;;
76403;SDS011;65232;48.358;2.122;2024-01-30T00:57:38;20.73;;;13.98;;
76403;SDS011;65232;48.358;2.122;2024-01-30T00:58:04;20.45;;;14.70;;
76403;SDS011;65232;48.358;2.122;2024-01-30T00:58:30;21.08;;;14.27;;
76403;SDS011;65232;48.358;2.122;2024-01-30T00:58:55;19.23;;;14.25;;
76403;SDS011;65232;48.358;2.122;2024-01-30T00:59:21;21.05;;;14.48;;
76403;SDS011;65232;48.358;2.122;2024-01-30T00:59:46;20.02;;;14.50;;
76403;SDS011;65232;48.358;2.122;2024-01-30T01:00:12;19.17;;;14.13;;
76403;SDS011;65232;48.358;2.122;2024-01-30T01:00:38;21.20;;;14.15;;
76403;SDS011;65232;48.358;2.122;2024-01-30T01:01:04;19.23;;;13.80;;
76403;SDS011;65232;48.358;2.122;2024-01-30T01:01:30;19.33;;;14.45;;
76403;SDS011;65232;48.358;2.122;2024-01-30T01:01:55;19.13;;;14.25;;
76403;SDS011;65232;48.358;2.122;2024-01-30T01:02:20;24.55;;;16.08;;
76403;SDS011;65232;48.358;2.122;2024-01-30T01:02:46;20.55;;;14.05;;
76403;SDS011;65232;48.358;2.122;2024-01-30T01:03:11;19.27;;;14.23;;
76403;SDS011;65232;48.358;2.122;2024-01-30T01:03:39;21.30;;;14.77;;
76403;SDS011;65232;48.358;2.122;2024-01-30T01:04:06;19.63;;;14.88;;
76403;SDS011;65232;48.358;2.122;2024-01-30T01:04:32;19.52;;;13.48;;
76403;SDS011;65232;48.358;2.122;2024-01-30T01:04:57;19.23;;;13.73;;
76403;SDS011;65232;48.358;2.122;2024-01-30T01:05:23;19.00;;;13.82;;
76403;SDS011;65232;48.358;2.122;2024-01-30T01:05:48;22.33;;;14.55;;
76403;SDS011;65232;48.358;2.122;2024-01-30T01:06:14;20.60;;;13.60;;
76403;SDS011;65232;48.358;2.122;2024-01-30T01:06:39;19.80;;;14.43;;
76403;SDS011;65232;48.358;2.122;2024-01-30T01:07:07;17.23;;;13.82;;
76403;SDS011;65232;48.358;2.122;2024-01-30T01:07:33;17.70;;;13.70;;
76403;SDS011;65232;48.358;2.122;2024-01-30T01:07:58;19.05;;;13.38;;
76403;SDS011;65232;48.358;2.122;2024-01-30T01:08:24;20.17;;;13.18;;
76403;SDS011;65232;48.358;2.122;2024-01-30T01:09:15;16.02;;;12.25;;
76403;SDS011;65232;48.358;2.122;2024-01-30T01:09:41;17.98;;;12.65;;
76403;SDS011;65232;48.358;2.122;2024-01-30T01:10:07;18.30;;;13.48;;
76403;SDS011;65232;48.358;2.122;2024-01-30T01:10:33;18.15;;;12.52;;
76403;SDS011;65232;48.358;2.122;2024-01-30T01:10:59;16.63;;;13.23;;
76403;SDS011;65232;48.358;2.122;2024-01-30T01:11:24;16.52;;;12.32;;
76403;SDS011;65232;48.358;2.122;2024-01-30T01:11:49;18.33;;;12.50;;
76403;SDS011;65232;48.358;2.122;2024-01-30T01:12:15;21.98;;;14.48;;
76403;SDS011;65232;48.358;2.122;2024-01-30T01:12:40;22.52;;;15.93;;
76403;SDS011;65232;48.358;2.122;2024-01-30T01:13:06;20.48;;;15.43;;
76403;SDS011;65232;48.358;2.122;2024-01-30T01:13:32;21.77;;;15.35;;
76403;SDS011;65232;48.358;2.122;2024-01-30T01:13:57;20.85;;;14.15;;
76403;SDS011;65232;48.358;2.122;2024-01-30T01:14:23;18.05;;;12.95;;
76403;SDS011;65232;48.358;2.122;2024-01-30T01:14:48;18.35;;;13.30;;
76403;SDS011;65232;48.358;2.122;2024-01-30T01:15:14;22.15;;;14.18;;
76403;SDS011;65232;48.358;2.122;2024-01-30T01:15:39;17.33;;;12.98;;
76403;SDS011;65232;48.358;2.122;2024-01-30T01:16:05;18.00;;;13.73;;
76403;SDS011;65232;48.358;2.122;2024-01-30T01:16:30;21.90;;;13.60;;
76403;SDS011;65232;48.358;2.122;2024-01-30T01:16:56;16.30;;;13.25;;
76403;SDS011;65232;48.358;2.122;2024-01-30T01:17:21;20.23;;;13.70;;
76403;SDS011;65232;48.358;2.122;2024-01-30T01:17:47;19.63;;;12.65;;
76403;SDS011;65232;48.358;2.122;2024-01-30T01:18:12;18.05;;;13.10;;
76403;SDS011;65232;48.358;2.122;2024-01-30T01:18:38;18.27;;;13.27;;
76403;SDS011;65232;48.358;2.122;2024-01-30T01:19:03;17.23;;;12.30;;
76403;SDS011;65232;48.358;2.122;2024-01-30T01:19:29;17.60;;;13.15;;
76403;SDS011;65232;48.358;2.122;2024-01-30T01:19:55;17.35;;;13.13;;
76403;SDS011;65232;48.358;2.122;2024-01-30T01:20:20;16.83;;;12.88;;
76403;SDS011;65232;48.358;2.122;2024-01-30T01:20:46;18.42;;;13.27;;
76403;SDS011;65232;48.358;2.122;2024-01-30T01:21:11;17.08;;;12.55;;
76403;SDS011;65232;48.358;2.122;2024-01-30T01:21:37;18.38;;;14.20;;
76403;SDS011;65232;48.358;2.122;2024-01-30T01:22:02;20.05;;;13.40;;
76403;SDS011;65232;48.358;2.122;2024-01-30T01:22:28;18.95;;;13.05;;
76403;SDS011;65232;48.358;2.122;2024-01-30T01:22:53;17.80;;;13.25;;
76403;SDS011;65232;48.358;2.122;2024-01-30T01:23:19;19.50;;;13.45;;
76403;SDS011;65232;48.358;2.122;2024-01-30T01:23:45;17.98;;;12.73;;
76403;SDS011;65232;48.358;2.122;2024-01-30T01:24:10;17.67;;;13.07;;
76403;SDS011;65232;48.358;2.122;2024-01-30T01:24:36;16.63;;;12.52;;
76403;SDS011;65232;48.358;2.122;2024-01-30T01:25:01;18.40;;;13.05;;
76403;SDS011;65232;48.358;2.122;2024-01-30T01:25:27;16.30;;;12.27;;
76403;SDS011;65232;48.358;2.122;2024-01-30T01:25:52;21.73;;;13.27;;
76403;SDS011;65232;48.358;2.122;2024-01-30T01:26:18;15.93;;;11.60;;
76403;SDS011;65232;48.358;2.122;2024-01-30T01:26:43;16.10;;;12.27;;
76403;SDS011;65232;48.358;2.122;2024-01-30T01:27:09;22.40;;;14.38;;
76403;SDS011;65232;48.358;2.122;2024-01-30T01:27:34;16.98;;;12.98;;
76403;SDS011;65232;48.358;2.122;2024-01-30T01:28:05;19.55;;;12.15;;
76403;SDS011;65232;48.358;2.122;2024-01-30T01:28:30;18.02;;;12.55;;
76403;SDS011;65232;48.358;2.122;2024-01-30T01:28:56;15.88;;;12.48;;
76403;SDS011;65232;48.358;2.122;2024-01-30T01:29:21;17.83;;;13.05;;
76403;SDS011;65232;48.358;2.122;2024-01-30T01:29:53;19.63;;;12.25;;
76403;SDS011;65232;48.358;2.122;2024-01-30T01:30:19;19.33;;;12.93;;
76403;SDS011;65232;48.358;2.122;2024-01-30T01:30:46;19.90;;;12.65;;
76403;SDS011;65232;48.358;2.122;2024-01-30T01:31:12;20.13;;;13.20;;
76403;SDS011;65232;48.358;2.122;2024-01-30T01:31:37;18.92;;;12.57;;
76403;SDS011;65232;48.358;2.122;2024-01-30T01:32:09;17.35;;;12.38;;
76403;SDS011;65232;48.358;2.122;2024-01-30T01:32:34;19.08;;;12.57;;
76403;SDS011;65232;48.358;2.122;2024-01-30T01:33:00;17.75;;;12.73;;
76403;SDS011;65232;48.358;2.122;2024-01-30T01:33:27;20.35;;;13.65;;
76403;SDS011;65232;48.358;2.122;2024-01-30T01:33:52;20.15;;;13.05;;
76403;SDS011;65232;48.358;2.122;2024-01-30T01:34:18;18.02;;;12.23;;
76403;SDS011;65232;48.358;2.122;2024-01-30T01:34:43;19.83;;;12.45;;
76403;SDS011;65232;48.358;2.122;2024-01-30T01:35:09;18.60;;;12.68;;
76403;SDS011;65232;48.358;2.122;2024-01-30T01:35:34;19.50;;;13.50;;
76403;SDS011;65232;48.358;2.122;2024-01-30T01:36:00;17.20;;;13.10;;
76403;SDS011;65232;48.358;2.122;2024-01-30T01:36:27;18.98;;;12.93;;
76403;SDS011;65232;48.358;2.122;2024-01-30T01:36:53;19.10;;;13.65;;
76403;SDS011;65232;48.358;2.122;2024-01-30T01:37:20;17.73;;;13.40;;
76403;SDS011;65232;48.358;2.122;2024-01-30T01:37:47;18.75;;;13.15;;
76403;SDS011;65232;48.358;2.122;2024-01-30T01:38:12;19.27;;;12.80;;
76403;SDS011;65232;48.358;2.122;2024-01-30T01:38:38;18.23;;;13.20;;
76403;SDS011;65232;48.358;2.122;2024-01-30T01:39:03;16.27;;;11.68;;
76403;SDS011;65232;48.358;2.122;2024-01-30T01:39:29;17.77;;;13.35;;
76403;SDS011;65232;48.358;2.122;2024-01-30T01:39:54;17.33;;;13.73;;
76403;SDS011;65232;48.358;2.122;2024-01-30T01:40:23;18.23;;;11.65;;
76403;SDS011;65232;48.358;2.122;2024-01-30T01:40:49;17.25;;;12.63;;
76403;SDS011;65232;48.358;2.122;2024-01-30T01:41:14;18.30;;;12.55;;
76403;SDS011;65232;48.358;2.122;2024-01-30T01:41:40;18.88;;;12.73;;
76403;SDS011;65232;48.358;2.122;2024-01-30T01:42:05;18.17;;;12.70;;
76403;SDS011;65232;48.358;2.122;2024-01-30T01:42:31;16.42;;;12.80;;
76403;SDS011;65232;48.358;2.122;2024-01-30T01:42:57;17.77;;;12.95;;
76403;SDS011;65232;48.358;2.122;2024-01-30T01:43:22;17.38;;;12.38;;
76403;SDS011;65232;48.358;2.122;2024-01-30T01:43:48;18.90;;;12.95;;
76403;SDS011;65232;48.358;2.122;2024-01-30T01:44:13;19.95;;;12.77;;
76403;SDS011;65232;48.358;2.122;2024-01-30T01:44:39;19.15;;;12.60;;
76403;SDS011;65232;48.358;2.122;2024-01-30T01:45:04;20.30;;;13.40;;
76403;SDS011;65232;48.358;2.122;2024-01-30T01:45:30;18.98;;;12.68;;
76403;SDS011;65232;48.358;2.122;2024-01-30T01:45:56;17.98;;;12.20;;
76403;SDS011;65232;48.358;2.122;2024-01-30T01:46:21;19.90;;;13.07;;
76403;SDS011;65232;48.358;2.122;2024-01-30T01:46:47;21.17;;;14.07;;
76403;SDS011;65232;48.358;2.122;2024-01-30T01:47:14;19.92;;;12.70;;
76403;SDS011;65232;48.358;2.122;2024-01-30T01:47:40;31.90;;;20.55;;
76403;SDS011;65232;48.358;2.122;2024-01-30T01:48:06;27.90;;;17.02;;
76403;SDS011;65232;48.358;2.122;2024-01-30T01:48:33;19.02;;;14.13;;
76403;SDS011;65232;48.358;2.122;2024-01-30T01:48:59;21.38;;;14.60;;
76403;SDS011;65232;48.358;2.122;2024-01-30T01:49:25;22.35;;;15.57;;
76403;SDS011;65232;48.358;2.122;2024-01-30T01:49:52;22.33;;;14.90;;
76403;SDS011;65232;48.358;2.122;2024-01-30T01:50:18;23.58;;;14.68;;
76403;SDS011;65232;48.358;2.122;2024-01-30T01:50:45;20.42;;;13.40;;
76403;SDS011;65232;48.358;2.122;2024-01-30T01:51:11;19.05;;;13.80;;
76403;SDS011;65232;48.358;2.122;2024-01-30T01:51:36;19.95;;;14.43;;
76403;SDS011;65232;48.358;2.122;2024-01-30T01:52:04;20.20;;;13.93;;
76403;SDS011;65232;48.358;2.122;2024-01-30T01:52:31;19.42;;;13.20;;
76403;SDS011;65232;48.358;2.122;2024-01-30T01:52:56;22.15;;;14.40;;
76403;SDS011;65232;48.358;2.122;2024-01-30T01:53:22;18.27;;;13.35;;
76403;SDS011;65232;48.358;2.122;2024-01-30T01:53:48;20.92;;;13.13;;
76403;SDS011;65232;48.358;2.122;2024-01-30T01:54:14;19.15;;;13.50;;
76403;SDS011;65232;48.358;2.122;2024-01-30T01:54:40;20.73;;;13.40;;
76403;SDS011;65232;48.358;2.122;2024-01-30T01:55:06;18.98;;;12.30;;
76403;SDS011;65232;48.358;2.122;2024-01-30T01:55:37;17.27;;;13.07;;
76403;SDS011;65232;48.358;2.122;2024-01-30T01:56:02;17.08;;;12.88;;
76403;SDS011;65232;48.358;2.122;2024-01-30T01:56:28;17.67;;;12.25;;
76403;SDS011;65232;48.358;2.122;2024-01-30T01:56:55;18.02;;;13.10;;
76403;SDS011;65232;48.358;2.122;2024-01-30T01:57:20;18.27;;;12.65;;
76403;SDS011;65232;48.358;2.122;2024-01-30T01:57:46;17.13;;;12.88;;
76403;SDS011;65232;48.358;2.122;2024-01-30T01:58:12;17.15;;;11.70;;
76403;SDS011;65232;48.358;2.122;2024-01-30T01:58:38;17.30;;;13.10;;
76403;SDS011;65232;48.358;2.122;2024-01-30T01:59:34;18.65;;;12.00;;
76403;SDS011;65232;48.358;2.122;2024-01-30T02:00:00;16.75;;;12.45;;
76403;SDS011;65232;48.358;2.122;2024-01-30T02:00:27;17.92;;;12.50;;
76403;SDS011;65232;48.358;2.122;2024-01-30T02:00:53;16.65;;;12.20;;
76403;SDS011;65232;48.358;2.122;2024-01-30T02:01:19;17.95;;;11.63;;
76403;SDS011;65232;48.358;2.122;2024-01-30T02:01:45;19.45;;;12.82;;
76403;SDS011;65232;48.358;2.122;2024-01-30T02:02:14;20.08;;;13.23;;
76403;SDS011;65232;48.358;2.122;2024-01-30T02:02:42;17.23;;;12.60;;
76403;SDS011;65232;48.358;2.122;2024-01-30T02:03:10;16.27;;;12.10;;
76403;SDS011;65232;48.358;2.122;2024-01-30T02:03:37;18.65;;;12.73;;
76403;SDS011;65232;48.358;2.122;2024-01-30T02:04:03;20.38;;;12.40;;
76403;SDS011;65232;48.358;2.122;2024-01-30T02:04:29;17.40;;;12.55;;
76403;SDS011;65232;48.358;2.122;2024-01-30T02:04:54;16.63;;;11.70;;
76403;SDS011;65232;48.358;2.122;2024-01-30T02:05:20;17.58;;;12.52;;
76403;SDS011;65232;48.358;2.122;2024-01-30T02:05:46;17.77;;;12.27;;
76403;SDS011;65232;48.358;2.122;2024-01-30T02:06:12;17.38;;;12.10;;
76403;SDS011;65232;48.358;2.122;2024-01-30T02:06:39;17.88;;;12.30;;
76403;SDS011;65232;48.358;2.122;2024-01-30T02:07:05;21.63;;;13.07;;
76403;SDS011;65232;48.358;2.122;2024-01-30T02:07:31;16.13;;;11.80;;
76403;SDS011;65232;48.358;2.122;2024-01-30T02:07:56;18.15;;;12.13;;
76403;SDS011;65232;48.358;2.122;2024-01-30T02:08:22;14.38;;;11.20;;
76403;SDS011;65232;48.358;2.122;2024-01-30T02:08:49;17.38;;;12.18;;
76403;SDS011;65232;48.358;2.122;2024-01-30T02:09:14;15.63;;;11.85;;
76403;SDS011;65232;48.358;2.122;2024-01-30T02:09:40;17.52;;;12.20;;
76403;SDS011;65232;48.358;2.122;2024-01-30T02:10:05;17.95;;;13.25;;
76403;SDS011;65232;48.358;2.122;2024-01-30T02:10:33;15.48;;;11.15;;
76403;SDS011;65232;48.358;2.122;2024-01-30T02:10:58;18.65;;;13.20;;
76403;SDS011;65232;48.358;2.122;2024-01-30T02:11:50;15.65;;;11.40;;
76403;SDS011;65232;48.358;2.122;2024-01-30T02:12:16;19.55;;;10.93;;
76403;SDS011;65232;48.358;2.122;2024-01-30T02:12:44;16.63;;;11.80;;
76403;SDS011;65232;48.358;2.122;2024-01-30T02:13:09;16.13;;;11.68;;
76403;SDS011;65232;48.358;2.122;2024-01-30T02:13:35;17.10;;;11.48;;
76403;SDS011;65232;48.358;2.122;2024-01-30T02:14:04;14.52;;;10.73;;
76403;SDS011;65232;48.358;2.122;2024-01-30T02:14:29;14.55;;;10.35;;
76403;SDS011;65232;48.358;2.122;2024-01-30T02:14:55;17.88;;;12.65;;
76403;SDS011;65232;48.358;2.122;2024-01-30T02:15:22;16.50;;;11.60;;
76403;SDS011;65232;48.358;2.122;2024-01-30T02:15:51;16.92;;;11.27;;
76403;SDS011;65232;48.358;2.122;2024-01-30T02:16:16;17.88;;;11.80;;
76403;SDS011;65232;48.358;2.122;2024-01-30T02:16:42;16.13;;;12.07;;
76403;SDS011;65232;48.358;2.122;2024-01-30T02:17:08;17.48;;;12.25;;
76403;SDS011;65232;48.358;2.122;2024-01-30T02:17:33;17.10;;;11.70;;
76403;SDS011;65232;48.358;2.122;2024-01-30T02:17:58;19.10;;;11.27;;
76403;SDS011;65232;48.358;2.122;2024-01-30T02:18:24;17.35;;;11.55;;
76403;SDS011;65232;48.358;2.122;2024-01-30T02:18:49;18.25;;;11.77;;
76403;SDS011;65232;48.358;2.122;2024-01-30T02:19:15;21.02;;;12.80;;
76403;SDS011;65232;48.358;2.122;2024-01-30T02:19:40;17.67;;;11.35;;
76403;SDS011;65232;48.358;2.122;2024-01-30T02:20:06;17.55;;;11.57;;
76403;SDS011;65232;48.358;2.122;2024-01-30T02:20:31;15.55;;;11.30;;
76403;SDS011;65232;48.358;2.122;2024-01-30T02:21:04;15.25;;;10.60;;
76403;SDS011;65232;48.358;2.122;2024-01-30T02:21:30;16.70;;;11.43;;
76403;SDS011;65232;48.358;2.122;2024-01-30T02:21:55;17.10;;;11.57;;
76403;SDS011;65232;48.358;2.122;2024-01-30T02:22:21;15.48;;;10.73;;
76403;SDS011;65232;48.358;2.122;2024-01-30T02:22:47;14.73;;;9.70;;
76403;SDS011;65232;48.358;2.122;2024-01-30T02:23:15;15.02;;;11.45;;
76403;SDS011;65232;48.358;2.122;2024-01-30T02:23:41;15.05;;;11.50;;
76403;SDS011;65232;48.358;2.122;2024-01-30T02:24:09;17.42;;;11.20;;
76403;SDS011;65232;48.358;2.122;2024-01-30T02:24:34;17.08;;;11.13;;
76403;SDS011;65232;48.358;2.122;2024-01-30T02:25:00;16.08;;;11.40;;
76403;SDS011;65232;48.358;2.122;2024-01-30T02:25:40;17.55;;;10.88;;
76403;SDS011;65232;48.358;2.122;2024-01-30T02:26:09;16.20;;;10.85;;
76403;SDS011;65232;48.358;2.122;2024-01-30T02:26:34;15.73;;;11.00;;
76403;SDS011;65232;48.358;2.122;2024-01-30T02:27:00;17.10;;;11.50;;
76403;SDS011;65232;48.358;2.122;2024-01-30T02:27:25;14.65;;;10.38;;
76403;SDS011;65232;48.358;2.122;2024-01-30T02:27:51;18.10;;;11.75;;
76403;SDS011;65232;48.358;2.122;2024-01-30T02:28:16;19.38;;;11.85;;
76403;SDS011;65232;48.358;2.122;2024-01-30T02:28:42;16.10;;;10.63;;
76403;SDS011;65232;48.358;2.122;2024-01-30T02:29:07;18.00;;;11.45;;
76403;SDS011;65232;48.358;2.122;2024-01-30T02:29:33;12.10;;;7.20;;
76403;SDS011;65232;48.358;2.122;2024-01-30T02:29:58;15.57;;;11.15;;
76403;SDS011;65232;48.358;2.122;2024-01-30T02:30:24;18.50;;;11.25;;
76403;SDS011;65232;48.358;2.122;2024-01-30T02:30:49;14.77;;;10.82;;
76403;SDS011;65232;48.358;2.122;2024-01-30T02:31:15;16.77;;;11.02;;
76403;SDS011;65232;48.358;2.122;2024-01-30T02:31:40;17.20;;;10.05;;
76403;SDS011;65232;48.358;2.122;2024-01-30T02:32:06;14.93;;;10.73;;
76403;SDS011;65232;48.358;2.122;2024-01-30T02:32:32;15.80;;;10.63;;
76403;SDS011;65232;48.358;2.122;2024-01-30T02:32:58;16.40;;;10.48;;
76403;SDS011;65232;48.358;2.122;2024-01-30T02:33:23;16.77;;;10.52;;